sensor_id;sensor_type;location;lat;lon;timestamp;P1;durP1;ratioP1;P2;durP2;ratioP2
77038;SDS011;65970;50.476;4.840;2024-02-26T00:02:19;2.17;;;0.40;;
77038;SDS011;65970;50.476;4.840;2024-02-26T00:07:19;1.98;;;0.40;;
77038;SDS011;65970;50.476;4.840;2024-02-26T00:12:20;0.90;;;0.40;;
77038;SDS011;65970;50.476;4.840;2024-02-26T00:17:20;0.35;;;0.20;;
77038;SDS011;65970;50.476;4.840;2024-02-26T00:22:21;0.77;;;0.40;;
77038;SDS011;65970;50.476;4.840;2024-02-26T00:27:21;0.20;;;0.20;;
77038;SDS011;65970;50.476;4.840;2024-02-26T00:32:22;0.73;;;0.40;;
77038;SDS011;65970;50.476;4.840;2024-02-26T00:37:23;0.28;;;0.20;;
77038;SDS011;65970;50.476;4.840;2024-02-26T00:42:23;0.45;;;0.35;;
77038;SDS011;65970;50.476;4.840;2024-02-26T00:47:24;0.20;;;0.20;;
77038;SDS011;65970;50.476;4.840;2024-02-26T00:52:24;0.20;;;0.20;;
77038;SDS011;65970;50.476;4.840;2024-02-26T00:57:25;0.28;;;0.28;;
77038;SDS011;65970;50.476;4.840;2024-02-26T01:02:25;0.50;;;0.17;;
77038;SDS011;65970;50.476;4.840;2024-02-26T01:07:26;0.38;;;0.30;;
77038;SDS011;65970;50.476;4.840;2024-02-26T01:12:27;0.22;;;0.22;;
77038;SDS011;65970;50.476;4.840;2024-02-26T01:17:27;0.93;;;0.40;;
77038;SDS011;65970;50.476;4.840;2024-02-26T01:22:28;0.20;;;0.20;;
77038;SDS011;65970;50.476;4.840;2024-02-26T01:27:28;0.32;;;0.25;;
77038;SDS011;65970;50.476;4.840;2024-02-26T01:32:29;1.30;;;0.50;;
77038;SDS011;65970;50.476;4.840;2024-02-26T01:37:30;0.20;;;0.20;;
77038;SDS011;65970;50.476;4.840;2024-02-26T01:42:31;0.30;;;0.20;;
77038;SDS011;65970;50.476;4.840;2024-02-26T01:47:31;0.68;;;0.35;;
77038;SDS011;65970;50.476;4.840;2024-02-26T01:52:32;0.50;;;0.38;;
77038;SDS011;65970;50.476;4.840;2024-02-26T01:57:32;0.57;;;0.22;;
77038;SDS011;65970;50.476;4.840;2024-02-26T02:02:34;0.20;;;0.20;;
77038;SDS011;65970;50.476;4.840;2024-02-26T02:07:35;0.73;;;0.40;;
77038;SDS011;65970;50.476;4.840;2024-02-26T02:12:36;0.20;;;0.20;;
77038;SDS011;65970;50.476;4.840;2024-02-26T02:17:36;0.25;;;0.25;;
77038;SDS011;65970;50.476;4.840;2024-02-26T02:22:37;0.82;;;0.28;;
77038;SDS011;65970;50.476;4.840;2024-02-26T02:27:37;0.38;;;0.38;;
77038;SDS011;65970;50.476;4.840;2024-02-26T02:32:39;0.52;;;0.30;;
77038;SDS011;65970;50.476;4.840;2024-02-26T02:37:40;0.30;;;0.30;;
77038;SDS011;65970;50.476;4.840;2024-02-26T02:42:41;0.90;;;0.28;;
77038;SDS011;65970;50.476;4.840;2024-02-26T02:47:42;0.15;;;0.15;;
77038;SDS011;65970;50.476;4.840;2024-02-26T02:52:42;0.28;;;0.28;;
77038;SDS011;65970;50.476;4.840;2024-02-26T02:57:43;0.35;;;0.30;;
77038;SDS011;65970;50.476;4.840;2024-02-26T03:02:43;0.20;;;0.20;;
77038;SDS011;65970;50.476;4.840;2024-02-26T03:07:44;0.35;;;0.20;;
77038;SDS011;65970;50.476;4.840;2024-02-26T03:12:45;0.40;;;0.30;;
77038;SDS011;65970;50.476;4.840;2024-02-26T03:17:45;0.20;;;0.10;;
77038;SDS011;65970;50.476;4.840;2024-02-26T03:22:46;0.32;;;0.20;;
77038;SDS011;65970;50.476;4.840;2024-02-26T03:27:46;0.30;;;0.28;;
77038;SDS011;65970;50.476;4.840;2024-02-26T03:32:47;0.20;;;0.20;;
77038;SDS011;65970;50.476;4.840;2024-02-26T03:37:47;0.32;;;0.30;;
77038;SDS011;65970;50.476;4.840;2024-02-26T03:42:48;0.52;;;0.30;;
77038;SDS011;65970;50.476;4.840;2024-02-26T03:47:49;0.20;;;0.20;;
77038;SDS011;65970;50.476;4.840;2024-02-26T03:52:49;0.60;;;0.22;;
77038;SDS011;65970;50.476;4.840;2024-02-26T03:57:50;0.43;;;0.25;;
77038;SDS011;65970;50.476;4.840;2024-02-26T04:02:51;0.20;;;0.20;;
77038;SDS011;65970;50.476;4.840;2024-02-26T04:07:52;0.20;;;0.20;;
77038;SDS011;65970;50.476;4.840;2024-02-26T04:12:52;0.20;;;0.20;;
77038;SDS011;65970;50.476;4.840;2024-02-26T04:17:53;0.15;;;0.15;;
77038;SDS011;65970;50.476;4.840;2024-02-26T04:22:53;0.17;;;0.17;;
77038;SDS011;65970;50.476;4.840;2024-02-26T04:27:54;0.47;;;0.28;;
77038;SDS011;65970;50.476;4.840;2024-02-26T04:32:54;0.17;;;0.17;;
77038;SDS011;65970;50.476;4.840;2024-02-26T04:37:55;0.30;;;0.20;;
77038;SDS011;65970;50.476;4.840;2024-02-26T04:42:56;0.20;;;0.20;;
77038;SDS011;65970;50.476;4.840;2024-02-26T04:47:56;0.50;;;0.50;;
77038;SDS011;65970;50.476;4.840;2024-02-26T04:52:59;0.30;;;0.30;;
77038;SDS011;65970;50.476;4.840;2024-02-26T04:57:59;0.25;;;0.22;;
77038;SDS011;65970;50.476;4.840;2024-02-26T05:03:00;0.20;;;0.20;;
77038;SDS011;65970;50.476;4.840;2024-02-26T05:08:00;0.25;;;0.25;;
77038;SDS011;65970;50.476;4.840;2024-02-26T05:13:01;0.28;;;0.28;;
77038;SDS011;65970;50.476;4.840;2024-02-26T05:18:02;1.60;;;0.50;;
77038;SDS011;65970;50.476;4.840;2024-02-26T05:23:03;0.63;;;0.40;;
77038;SDS011;65970;50.476;4.840;2024-02-26T05:28:04;0.25;;;0.25;;
77038;SDS011;65970;50.476;4.840;2024-02-26T05:33:04;0.30;;;0.30;;
77038;SDS011;65970;50.476;4.840;2024-02-26T05:38:05;0.50;;;0.30;;
77038;SDS011;65970;50.476;4.840;2024-02-26T05:43:05;0.28;;;0.28;;
77038;SDS011;65970;50.476;4.840;2024-02-26T05:48:06;0.40;;;0.40;;
77038;SDS011;65970;50.476;4.840;2024-02-26T05:53:07;0.65;;;0.50;;
77038;SDS011;65970;50.476;4.840;2024-02-26T05:58:07;0.65;;;0.60;;
77038;SDS011;65970;50.476;4.840;2024-02-26T06:03:08;0.28;;;0.28;;
77038;SDS011;65970;50.476;4.840;2024-02-26T06:08:08;0.70;;;0.70;;
77038;SDS011;65970;50.476;4.840;2024-02-26T06:13:09;0.88;;;0.80;;
77038;SDS011;65970;50.476;4.840;2024-02-26T06:18:10;0.55;;;0.52;;
77038;SDS011;65970;50.476;4.840;2024-02-26T06:23:10;0.77;;;0.68;;
77038;SDS011;65970;50.476;4.840;2024-02-26T06:28:11;0.47;;;0.43;;
77038;SDS011;65970;50.476;4.840;2024-02-26T06:33:11;0.95;;;0.50;;
77038;SDS011;65970;50.476;4.840;2024-02-26T06:38:12;1.15;;;0.60;;
77038;SDS011;65970;50.476;4.840;2024-02-26T06:43:12;1.00;;;0.75;;
77038;SDS011;65970;50.476;4.840;2024-02-26T06:48:13;0.65;;;0.55;;
77038;SDS011;65970;50.476;4.840;2024-02-26T06:53:13;1.00;;;0.60;;
77038;SDS011;65970;50.476;4.840;2024-02-26T06:58:14;0.60;;;0.60;;
77038;SDS011;65970;50.476;4.840;2024-02-26T07:03:14;1.95;;;0.47;;
77038;SDS011;65970;50.476;4.840;2024-02-26T07:08:15;0.73;;;0.73;;
77038;SDS011;65970;50.476;4.840;2024-02-26T07:13:15;0.90;;;0.80;;
77038;SDS011;65970;50.476;4.840;2024-02-26T07:18:16;2.22;;;0.65;;
77038;SDS011;65970;50.476;4.840;2024-02-26T07:23:16;2.85;;;0.50;;
77038;SDS011;65970;50.476;4.840;2024-02-26T07:28:17;0.93;;;0.90;;
77038;SDS011;65970;50.476;4.840;2024-02-26T07:33:18;1.35;;;1.20;;
77038;SDS011;65970;50.476;4.840;2024-02-26T07:38:18;1.65;;;1.13;;
77038;SDS011;65970;50.476;4.840;2024-02-26T07:49:09;0.90;;;0.90;;
77038;SDS011;65970;50.476;4.840;2024-02-26T07:54:10;0.70;;;0.70;;
77038;SDS011;65970;50.476;4.840;2024-02-26T07:59:10;1.25;;;0.90;;
77038;SDS011;65970;50.476;4.840;2024-02-26T08:04:11;1.10;;;1.00;;
77038;SDS011;65970;50.476;4.840;2024-02-26T08:09:11;0.77;;;0.73;;
77038;SDS011;65970;50.476;4.840;2024-02-26T08:14:12;0.60;;;0.60;;
77038;SDS011;65970;50.476;4.840;2024-02-26T08:19:12;0.95;;;0.88;;
77038;SDS011;65970;50.476;4.840;2024-02-26T08:24:13;0.88;;;0.80;;
77038;SDS011;65970;50.476;4.840;2024-02-26T08:29:13;0.80;;;0.75;;
77038;SDS011;65970;50.476;4.840;2024-02-26T08:34:14;0.60;;;0.60;;
77038;SDS011;65970;50.476;4.840;2024-02-26T08:39:14;1.35;;;0.65;;
77038;SDS011;65970;50.476;4.840;2024-02-26T08:44:15;0.60;;;0.60;;
77038;SDS011;65970;50.476;4.840;2024-02-26T08:49:16;1.27;;;1.17;;
77038;SDS011;65970;50.476;4.840;2024-02-26T08:54:16;3.38;;;2.95;;
77038;SDS011;65970;50.476;4.840;2024-02-26T08:59:17;2.65;;;2.40;;
77038;SDS011;65970;50.476;4.840;2024-02-26T09:04:17;2.20;;;1.35;;
77038;SDS011;65970;50.476;4.840;2024-02-26T09:09:18;2.75;;;1.63;;
77038;SDS011;65970;50.476;4.840;2024-02-26T09:14:18;1.33;;;1.10;;
77038;SDS011;65970;50.476;4.840;2024-02-26T09:19:19;2.63;;;1.95;;
77038;SDS011;65970;50.476;4.840;2024-02-26T09:24:19;1.42;;;1.33;;
77038;SDS011;65970;50.476;4.840;2024-02-26T09:29:20;0.80;;;0.80;;
77038;SDS011;65970;50.476;4.840;2024-02-26T09:34:20;0.60;;;0.60;;
77038;SDS011;65970;50.476;4.840;2024-02-26T09:39:21;0.50;;;0.50;;
77038;SDS011;65970;50.476;4.840;2024-02-26T09:44:22;0.50;;;0.50;;
77038;SDS011;65970;50.476;4.840;2024-02-26T09:49:23;0.50;;;0.50;;
77038;SDS011;65970;50.476;4.840;2024-02-26T09:54:24;0.38;;;0.38;;
77038;SDS011;65970;50.476;4.840;2024-02-26T09:59:26;0.70;;;0.70;;
77038;SDS011;65970;50.476;4.840;2024-02-26T10:04:27;2.13;;;1.27;;
77038;SDS011;65970;50.476;4.840;2024-02-26T10:09:28;2.35;;;2.03;;
77038;SDS011;65970;50.476;4.840;2024-02-26T10:14:30;5.10;;;2.88;;
77038;SDS011;65970;50.476;4.840;2024-02-26T10:19:31;3.85;;;2.58;;
77038;SDS011;65970;50.476;4.840;2024-02-26T10:24:32;3.20;;;2.10;;
77038;SDS011;65970;50.476;4.840;2024-02-26T10:29:33;3.40;;;2.17;;
77038;SDS011;65970;50.476;4.840;2024-02-26T10:34:35;1.92;;;1.70;;
77038;SDS011;65970;50.476;4.840;2024-02-26T10:39:36;1.33;;;0.80;;
77038;SDS011;65970;50.476;4.840;2024-02-26T10:44:36;0.63;;;0.55;;
77038;SDS011;65970;50.476;4.840;2024-02-26T10:54:46;0.35;;;0.35;;
77038;SDS011;65970;50.476;4.840;2024-02-26T10:59:48;1.67;;;0.77;;
77038;SDS011;65970;50.476;4.840;2024-02-26T11:04:50;1.05;;;0.80;;
77038;SDS011;65970;50.476;4.840;2024-02-26T11:09:51;3.67;;;2.20;;
77038;SDS011;65970;50.476;4.840;2024-02-26T11:14:53;6.90;;;2.55;;
77038;SDS011;65970;50.476;4.840;2024-02-26T11:19:55;12.18;;;5.53;;
77038;SDS011;65970;50.476;4.840;2024-02-26T11:24:56;2.85;;;2.17;;
77038;SDS011;65970;50.476;4.840;2024-02-26T11:29:59;3.15;;;2.25;;
77038;SDS011;65970;50.476;4.840;2024-02-26T11:35:02;1.20;;;1.10;;
77038;SDS011;65970;50.476;4.840;2024-02-26T11:40:05;1.70;;;0.95;;
77038;SDS011;65970;50.476;4.840;2024-02-26T11:50:40;0.85;;;0.85;;
77038;SDS011;65970;50.476;4.840;2024-02-26T11:55:46;1.75;;;1.40;;
77038;SDS011;65970;50.476;4.840;2024-02-26T12:00:46;4.68;;;2.90;;
77038;SDS011;65970;50.476;4.840;2024-02-26T12:05:47;5.80;;;2.85;;
77038;SDS011;65970;50.476;4.840;2024-02-26T12:10:49;5.13;;;2.63;;
77038;SDS011;65970;50.476;4.840;2024-02-26T12:21:00;5.10;;;2.67;;
77038;SDS011;65970;50.476;4.840;2024-02-26T12:26:02;6.65;;;2.67;;
77038;SDS011;65970;50.476;4.840;2024-02-26T12:31:03;4.22;;;2.92;;
77038;SDS011;65970;50.476;4.840;2024-02-26T12:36:04;2.47;;;2.17;;
77038;SDS011;65970;50.476;4.840;2024-02-26T12:41:05;2.55;;;2.35;;
77038;SDS011;65970;50.476;4.840;2024-02-26T12:46:06;3.10;;;1.20;;
77038;SDS011;65970;50.476;4.840;2024-02-26T12:51:07;0.88;;;0.88;;
77038;SDS011;65970;50.476;4.840;2024-02-26T12:56:08;1.10;;;1.05;;
77038;SDS011;65970;50.476;4.840;2024-02-26T13:01:13;1.10;;;1.10;;
77038;SDS011;65970;50.476;4.840;2024-02-26T13:06:17;1.00;;;1.00;;
77038;SDS011;65970;50.476;4.840;2024-02-26T13:11:18;2.35;;;1.60;;
77038;SDS011;65970;50.476;4.840;2024-02-26T13:16:18;1.15;;;1.05;;
77038;SDS011;65970;50.476;4.840;2024-02-26T13:21:19;1.60;;;1.50;;
77038;SDS011;65970;50.476;4.840;2024-02-26T13:26:21;2.10;;;1.45;;
77038;SDS011;65970;50.476;4.840;2024-02-26T13:31:25;0.68;;;0.68;;
77038;SDS011;65970;50.476;4.840;2024-02-26T13:36:25;1.88;;;1.20;;
77038;SDS011;65970;50.476;4.840;2024-02-26T13:41:26;3.45;;;1.17;;
77038;SDS011;65970;50.476;4.840;2024-02-26T13:46:26;1.42;;;0.85;;
77038;SDS011;65970;50.476;4.840;2024-02-26T13:51:27;2.78;;;0.52;;
77038;SDS011;65970;50.476;4.840;2024-02-26T13:56:27;0.70;;;0.68;;
77038;SDS011;65970;50.476;4.840;2024-02-26T14:01:28;2.30;;;1.23;;
77038;SDS011;65970;50.476;4.840;2024-02-26T14:06:29;2.35;;;1.20;;
77038;SDS011;65970;50.476;4.840;2024-02-26T14:11:29;1.52;;;0.85;;
77038;SDS011;65970;50.476;4.840;2024-02-26T14:16:30;1.40;;;1.30;;
77038;SDS011;65970;50.476;4.840;2024-02-26T14:21:31;3.60;;;2.10;;
77038;SDS011;65970;50.476;4.840;2024-02-26T14:26:32;2.72;;;2.00;;
77038;SDS011;65970;50.476;4.840;2024-02-26T14:31:32;2.60;;;1.90;;
77038;SDS011;65970;50.476;4.840;2024-02-26T14:36:33;3.70;;;2.47;;
77038;SDS011;65970;50.476;4.840;2024-02-26T14:41:33;4.15;;;2.78;;
77038;SDS011;65970;50.476;4.840;2024-02-26T14:46:34;2.30;;;2.03;;
77038;SDS011;65970;50.476;4.840;2024-02-26T14:51:36;3.85;;;2.40;;
77038;SDS011;65970;50.476;4.840;2024-02-26T14:56:37;3.47;;;2.42;;
77038;SDS011;65970;50.476;4.840;2024-02-26T15:01:37;3.17;;;1.90;;
77038;SDS011;65970;50.476;4.840;2024-02-26T15:06:38;2.25;;;2.05;;
77038;SDS011;65970;50.476;4.840;2024-02-26T15:11:39;5.53;;;2.50;;
77038;SDS011;65970;50.476;4.840;2024-02-26T15:16:40;3.17;;;2.58;;
77038;SDS011;65970;50.476;4.840;2024-02-26T15:21:47;4.15;;;3.22;;
77038;SDS011;65970;50.476;4.840;2024-02-26T15:26:47;4.32;;;3.30;;
77038;SDS011;65970;50.476;4.840;2024-02-26T15:31:48;3.85;;;3.05;;
77038;SDS011;65970;50.476;4.840;2024-02-26T15:36:48;6.10;;;4.57;;
77038;SDS011;65970;50.476;4.840;2024-02-26T15:41:49;3.80;;;3.50;;
77038;SDS011;65970;50.476;4.840;2024-02-26T15:46:49;4.22;;;3.58;;
77038;SDS011;65970;50.476;4.840;2024-02-26T15:51:50;4.63;;;3.88;;
77038;SDS011;65970;50.476;4.840;2024-02-26T15:56:50;3.35;;;3.05;;
77038;SDS011;65970;50.476;4.840;2024-02-26T16:01:51;4.95;;;3.42;;
77038;SDS011;65970;50.476;4.840;2024-02-26T16:06:56;4.22;;;3.75;;
77038;SDS011;65970;50.476;4.840;2024-02-26T16:12:00;5.32;;;4.10;;
77038;SDS011;65970;50.476;4.840;2024-02-26T16:22:31;4.43;;;3.45;;
77038;SDS011;65970;50.476;4.840;2024-02-26T16:27:32;5.38;;;3.97;;
77038;SDS011;65970;50.476;4.840;2024-02-26T16:32:32;6.43;;;5.30;;
77038;SDS011;65970;50.476;4.840;2024-02-26T16:37:33;7.80;;;5.43;;
77038;SDS011;65970;50.476;4.840;2024-02-26T16:42:34;7.47;;;4.80;;
77038;SDS011;65970;50.476;4.840;2024-02-26T16:47:35;8.60;;;5.97;;
77038;SDS011;65970;50.476;4.840;2024-02-26T16:52:36;4.65;;;4.22;;
77038;SDS011;65970;50.476;4.840;2024-02-26T16:57:36;5.53;;;5.00;;
77038;SDS011;65970;50.476;4.840;2024-02-26T17:02:37;5.60;;;4.88;;
77038;SDS011;65970;50.476;4.840;2024-02-26T17:07:37;5.95;;;5.13;;
77038;SDS011;65970;50.476;4.840;2024-02-26T17:12:38;5.75;;;5.15;;
77038;SDS011;65970;50.476;4.840;2024-02-26T17:17:38;5.75;;;4.70;;
77038;SDS011;65970;50.476;4.840;2024-02-26T17:22:39;6.57;;;5.43;;
77038;SDS011;65970;50.476;4.840;2024-02-26T17:27:39;7.00;;;5.20;;
77038;SDS011;65970;50.476;4.840;2024-02-26T17:32:40;8.13;;;5.70;;
77038;SDS011;65970;50.476;4.840;2024-02-26T17:37:42;9.43;;;6.25;;
77038;SDS011;65970;50.476;4.840;2024-02-26T17:42:43;7.35;;;5.25;;
77038;SDS011;65970;50.476;4.840;2024-02-26T17:47:44;6.57;;;4.57;;
77038;SDS011;65970;50.476;4.840;2024-02-26T17:52:44;6.55;;;5.25;;
77038;SDS011;65970;50.476;4.840;2024-02-26T17:57:45;7.45;;;5.32;;
77038;SDS011;65970;50.476;4.840;2024-02-26T18:02:45;5.78;;;4.85;;
77038;SDS011;65970;50.476;4.840;2024-02-26T18:07:46;8.65;;;6.18;;
77038;SDS011;65970;50.476;4.840;2024-02-26T18:12:47;6.90;;;5.20;;
77038;SDS011;65970;50.476;4.840;2024-02-26T18:17:47;6.35;;;5.13;;
77038;SDS011;65970;50.476;4.840;2024-02-26T18:22:48;9.77;;;6.18;;
77038;SDS011;65970;50.476;4.840;2024-02-26T18:27:48;6.78;;;4.47;;
77038;SDS011;65970;50.476;4.840;2024-02-26T18:32:49;8.15;;;5.47;;
77038;SDS011;65970;50.476;4.840;2024-02-26T18:37:49;6.18;;;5.30;;
77038;SDS011;65970;50.476;4.840;2024-02-26T18:42:50;6.45;;;5.47;;
77038;SDS011;65970;50.476;4.840;2024-02-26T18:47:51;5.57;;;4.65;;
77038;SDS011;65970;50.476;4.840;2024-02-26T18:52:52;6.95;;;5.03;;
77038;SDS011;65970;50.476;4.840;2024-02-26T18:57:52;5.85;;;4.32;;
77038;SDS011;65970;50.476;4.840;2024-02-26T19:02:53;4.38;;;3.97;;
77038;SDS011;65970;50.476;4.840;2024-02-26T19:07:54;8.52;;;5.22;;
77038;SDS011;65970;50.476;4.840;2024-02-26T19:12:54;9.43;;;5.28;;
77038;SDS011;65970;50.476;4.840;2024-02-26T19:17:55;12.73;;;6.57;;
77038;SDS011;65970;50.476;4.840;2024-02-26T19:22:56;8.13;;;4.90;;
77038;SDS011;65970;50.476;4.840;2024-02-26T19:27:56;5.70;;;4.22;;
77038;SDS011;65970;50.476;4.840;2024-02-26T19:32:57;7.93;;;4.63;;
77038;SDS011;65970;50.476;4.840;2024-02-26T19:37:57;5.38;;;3.85;;
77038;SDS011;65970;50.476;4.840;2024-02-26T19:42:58;7.47;;;4.70;;
77038;SDS011;65970;50.476;4.840;2024-02-26T19:47:58;4.50;;;3.58;;
77038;SDS011;65970;50.476;4.840;2024-02-26T19:52:59;4.78;;;4.22;;
77038;SDS011;65970;50.476;4.840;2024-02-26T19:57:59;4.45;;;3.80;;
77038;SDS011;65970;50.476;4.840;2024-02-26T20:03:00;6.10;;;3.90;;
77038;SDS011;65970;50.476;4.840;2024-02-26T20:08:00;4.47;;;3.17;;
77038;SDS011;65970;50.476;4.840;2024-02-26T20:13:01;6.88;;;4.35;;
77038;SDS011;65970;50.476;4.840;2024-02-26T20:18:02;4.80;;;3.88;;
77038;SDS011;65970;50.476;4.840;2024-02-26T20:23:03;7.13;;;4.53;;
77038;SDS011;65970;50.476;4.840;2024-02-26T20:28:03;6.43;;;4.43;;
77038;SDS011;65970;50.476;4.840;2024-02-26T20:33:04;5.75;;;4.28;;
77038;SDS011;65970;50.476;4.840;2024-02-26T20:38:05;5.35;;;3.92;;
77038;SDS011;65970;50.476;4.840;2024-02-26T20:43:05;5.47;;;4.53;;
77038;SDS011;65970;50.476;4.840;2024-02-26T20:48:06;5.40;;;4.00;;
77038;SDS011;65970;50.476;4.840;2024-02-26T20:53:06;6.10;;;4.07;;
77038;SDS011;65970;50.476;4.840;2024-02-26T20:58:07;4.95;;;4.10;;
77038;SDS011;65970;50.476;4.840;2024-02-26T21:03:08;7.68;;;4.15;;
77038;SDS011;65970;50.476;4.840;2024-02-26T21:08:09;5.45;;;4.18;;
77038;SDS011;65970;50.476;4.840;2024-02-26T21:13:10;7.22;;;4.35;;
77038;SDS011;65970;50.476;4.840;2024-02-26T21:18:10;6.65;;;4.63;;
77038;SDS011;65970;50.476;4.840;2024-02-26T21:23:11;5.80;;;4.35;;
77038;SDS011;65970;50.476;4.840;2024-02-26T21:28:11;8.45;;;4.70;;
77038;SDS011;65970;50.476;4.840;2024-02-26T21:33:12;7.07;;;4.20;;
77038;SDS011;65970;50.476;4.840;2024-02-26T21:38:12;7.22;;;5.13;;
77038;SDS011;65970;50.476;4.840;2024-02-26T21:43:13;5.90;;;4.38;;
77038;SDS011;65970;50.476;4.840;2024-02-26T21:48:14;7.90;;;5.32;;
77038;SDS011;65970;50.476;4.840;2024-02-26T21:53:14;8.93;;;6.20;;
77038;SDS011;65970;50.476;4.840;2024-02-26T21:58:15;12.68;;;5.38;;
77038;SDS011;65970;50.476;4.840;2024-02-26T22:03:15;8.27;;;4.97;;
77038;SDS011;65970;50.476;4.840;2024-02-26T22:08:16;7.15;;;5.38;;
77038;SDS011;65970;50.476;4.840;2024-02-26T22:13:16;8.68;;;5.40;;
77038;SDS011;65970;50.476;4.840;2024-02-26T22:18:17;8.35;;;4.90;;
77038;SDS011;65970;50.476;4.840;2024-02-26T22:23:18;6.63;;;4.78;;
77038;SDS011;65970;50.476;4.840;2024-02-26T22:28:18;9.02;;;5.32;;
77038;SDS011;65970;50.476;4.840;2024-02-26T22:33:19;6.88;;;4.97;;
77038;SDS011;65970;50.476;4.840;2024-02-26T22:38:19;8.00;;;5.20;;
77038;SDS011;65970;50.476;4.840;2024-02-26T22:43:20;8.52;;;5.80;;
77038;SDS011;65970;50.476;4.840;2024-02-26T22:48:20;8.63;;;6.22;;
77038;SDS011;65970;50.476;4.840;2024-02-26T22:53:21;8.68;;;5.97;;
77038;SDS011;65970;50.476;4.840;2024-02-26T22:58:21;7.93;;;5.88;;
77038;SDS011;65970;50.476;4.840;2024-02-26T23:03:22;7.63;;;5.43;;
77038;SDS011;65970;50.476;4.840;2024-02-26T23:08:22;9.43;;;6.00;;
77038;SDS011;65970;50.476;4.840;2024-02-26T23:13:23;6.00;;;4.38;;
77038;SDS011;65970;50.476;4.840;2024-02-26T23:18:23;8.63;;;5.63;;
77038;SDS011;65970;50.476;4.840;2024-02-26T23:23:24;7.80;;;5.95;;
77038;SDS011;65970;50.476;4.840;2024-02-26T23:28:25;8.18;;;5.70;;
77038;SDS011;65970;50.476;4.840;2024-02-26T23:33:25;7.88;;;4.47;;
77038;SDS011;65970;50.476;4.840;2024-02-26T23:38:26;7.72;;;5.32;;
77038;SDS011;65970;50.476;4.840;2024-02-26T23:43:27;9.13;;;5.97;;
77038;SDS011;65970;50.476;4.840;2024-02-26T23:48:27;9.60;;;5.28;;
77038;SDS011;65970;50.476;4.840;2024-02-26T23:53:28;5.93;;;4.60;;
77038;SDS011;65970;50.476;4.840;2024-02-26T23:58:28;7.72;;;5.50;;
